Time;durP1;ratioP1;P1;durP2;ratioP2;P2;SDS_P1;SDS_P2;PMS_P1;PMS_P2;Temp;Humidity;BMP_temperature;BMP_pressure;BME280_temperature;BME280_humidity;BME280_pressure;Samples;Min_cycle;Max_cycle;Signal;HPM_P1;HPM_P2
2022/12/26 00:00:56;;;;;;;;;;;;;;;11.83;93.97;99999.25;5072029;28;19947;-47
2022/12/26 00:03:22;;;;;;;;;;;;;;;12.24;93.22;100046.59;5071780;28;19927;-47
2022/12/26 00:05:47;;;;;;;;;;;;;;;12.48;92.25;100060.72;5074312;28;19924;-47
2022/12/26 00:08:12;;;;;;;;;;;;;;;12.64;88.97;100045.69;5072384;28;19928;-46
2022/12/26 00:10:37;;;;;;;;;;;;;;;11.92;90.74;99981.00;5074839;28;19919;-46
2022/12/26 00:13:03;;;;;;;;;;;;;;;12.37;90.11;100019.59;5070786;28;19913;-46
2022/12/26 00:15:28;;;;;;;;;;;;;;;12.16;89.82;99997.72;5074112;28;19916;-47
2022/12/26 00:17:53;;;;;;;;;;;;;;;12.81;88.14;100040.09;5074095;28;19940;-45
2022/12/26 00:20:18;;;;;;;;;;;;;;;12.74;86.48;100008.41;5072408;28;19912;-46
2022/12/26 00:22:44;;;;;;;;;;;;;;;12.08;86.84;99948.81;5076068;28;19932;-47
2022/12/26 00:25:09;;;;;;;;;;;;;;;12.58;86.29;99999.31;5072220;28;19920;-44
2022/12/26 00:27:34;;;;;;;;;;;;;;;12.80;83.60;99989.31;5074345;28;20370;-46
2022/12/26 00:29:59;;;;;;;;;;;;;;;12.96;79.82;99970.78;5072148;28;20376;-46
2022/12/26 00:32:24;;;;;;;;;;;;;;;13.10;74.99;99923.00;5069632;28;19979;-45
2022/12/26 00:34:50;;;;;;;;;;;;;;;12.77;74.75;99874.78;5072862;28;20021;-45
2022/12/26 00:37:15;;;;;;;;;;;;;;;13.04;71.28;99874.88;5071203;28;20023;-44
2022/12/26 00:39:40;;;;;;;;;;;;;;;13.01;69.26;99851.69;5072644;28;19981;-46
2022/12/26 00:42:05;;;;;;;;;;;;;;;12.36;70.23;99785.41;5073240;28;20004;-45
2022/12/26 00:44:30;;;;;;;;;;;;;;;12.82;69.56;99833.28;5071960;28;19918;-47
2022/12/26 00:46:56;;;;;;;;;;;;;;;12.86;68.60;99819.34;5072439;28;19924;-47
2022/12/26 00:49:21;;;;;;;;;;;;;;;13.41;65.49;99834.19;5069127;28;19916;-46
2022/12/26 00:51:46;;;;;;;;;;;;;;;12.84;65.64;99774.63;5071379;28;19924;-46
2022/12/26 00:54:11;;;;;;;;;;;;;;;13.13;63.90;99788.44;5073196;28;19969;-45
2022/12/26 00:56:36;;;;;;;;;;;;;;;12.95;64.51;99782.94;5069997;28;20098;-45
2022/12/26 00:59:02;;;;;;;;;;;;;;;13.02;64.22;99788.75;5070947;28;20023;-46
2022/12/26 01:01:29;;;;;;;;;;;;;;;13.35;61.80;99796.44;5074458;28;19994;-45
2022/12/26 01:03:55;;;;;;;;;;;;;;;13.15;61.53;99768.53;5073587;28;19921;-45
2022/12/26 01:06:20;;;;;;;;;;;;;;;12.92;63.37;99753.72;5072585;28;19938;-46
2022/12/26 01:08:45;;;;;;;;;;;;;;;13.18;62.54;99774.50;5069950;28;19913;-45
2022/12/26 01:11:12;;;;;;;;;;;;;;;13.35;60.17;99767.97;5072402;28;19946;-45
2022/12/26 01:13:37;;;;;;;;;;;;;;;13.49;56.65;99750.28;5074021;28;19928;-45
2022/12/26 01:16:03;;;;;;;;;;;;;;;13.13;58.20;99709.09;5072646;28;20289;-44
2022/12/26 01:18:28;;;;;;;;;;;;;;;13.62;54.24;99745.56;5070795;28;19926;-45
2022/12/26 01:21:01;;;;;;;;;;;;;;;13.44;51.62;99697.00;5068449;28;19927;-45
2022/12/26 01:23:26;;;;;;;;;;;;;;;13.56;49.16;99671.53;5071073;28;20471;-45
2022/12/26 01:25:51;;;;;;;;;;;;;;;13.73;46.80;99639.91;5065682;28;20011;-45
2022/12/26 01:28:16;;;;;;;;;;;;;;;13.32;48.22;99589.56;5071592;28;19924;-44
2022/12/26 01:30:41;;;;;;;;;;;;;;;13.64;46.46;99596.25;5071468;28;19927;-45
2022/12/26 01:33:07;;;;;;;;;;;;;;;13.66;44.86;99567.69;5070044;28;19920;-46
2022/12/26 01:35:32;;;;;;;;;;;;;;;13.65;44.55;99551.31;5071771;28;20036;-46
2022/12/26 01:37:57;;;;;;;;;;;;;;;13.46;45.68;99524.44;5072908;28;20579;-44
2022/12/26 01:40:23;;;;;;;;;;;;;;;13.46;45.78;99524.44;5068916;28;20380;-45
2022/12/26 01:42:48;;;;;;;;;;;;;;;13.45;45.83;99533.06;5071521;28;19920;-45
2022/12/26 01:45:25;;;;;;;;;;;;;;;13.59;45.24;99541.19;5071215;28;19921;-44
2022/12/26 01:48:03;;;;;;;;;;;;;;;13.56;45.59;99525.78;5070389;28;19922;-45
2022/12/26 01:50:42;;;;;;;;;;;;;;;13.35;46.38;99502.34;5069049;28;20269;-45
2022/12/26 01:53:09;;;;;;;;;;;;;;;13.32;46.68;99479.19;5072971;28;20007;-44
2022/12/26 01:55:34;;;;;;;;;;;;;;;13.70;45.61;99481.28;5069167;28;20003;-44
2022/12/26 01:58:00;;;;;;;;;;;;;;;13.85;46.33;99472.09;5070256;28;20003;-45
2022/12/26 02:00:25;;;;;;;;;;;;;;;13.80;47.51;99454.16;5068105;28;20443;-44
2022/12/26 02:05:35;;;;;;;;;;;;;;;13.66;49.82;99410.69;5069130;28;19950;-45
2022/12/26 02:08:20;;;;;;;;;;;;;;;13.43;48.63;99405.50;5071388;28;20286;-45
2022/12/26 02:10:50;;;;;;;;;;;;;;;13.15;49.82;99442.69;5071669;28;19916;-44
2022/12/26 02:13:16;;;;;;;;;;;;;;;13.34;48.48;99485.16;5067890;28;20464;-45
2022/12/26 02:15:41;;;;;;;;;;;;;;;13.39;48.50;99506.53;5068743;28;19923;-45
2022/12/26 02:18:07;;;;;;;;;;;;;;;13.56;47.45;99520.59;5073240;28;20023;-45
2022/12/26 02:20:38;;;;;;;;;;;;;;;13.19;48.63;99514.09;5068846;28;20381;-45
2022/12/26 02:23:10;;;;;;;;;;;;;;;13.10;48.87;99528.19;5072283;28;20602;-45
2022/12/26 02:25:35;;;;;;;;;;;;;;;12.93;50.40;99557.22;5067519;28;19947;-45
2022/12/26 02:28:09;;;;;;;;;;;;;;;12.93;52.05;99593.41;5071782;28;20393;-45
2022/12/26 02:30:49;;;;;;;;;;;;;;;13.29;52.99;99636.22;5066954;28;19920;-46
2022/12/26 02:33:36;;;;;;;;;;;;;;;13.09;54.42;99670.47;5069161;28;19917;-46
2022/12/26 02:36:09;;;;;;;;;;;;;;;13.43;53.96;99711.63;5068209;28;19917;-45
2022/12/26 02:38:53;;;;;;;;;;;;;;;13.46;53.39;99684.84;5067341;28;20006;-46
2022/12/26 02:41:18;;;;;;;;;;;;;;;12.73;56.45;99673.31;5071305;28;19942;-45
2022/12/26 02:43:50;;;;;;;;;;;;;;;13.02;56.59;99726.69;5071762;28;20511;-46
2022/12/26 02:49:05;;;;;;;;;;;;;;;13.53;57.17;99754.47;5069051;28;19965;-45
2022/12/26 03:13:50;;;;;;;;;;;;;;;13.03;59.48;99707.72;5069136;28;19943;-45
2022/12/26 03:17:18;;;;;;;;;;;;;;;13.21;58.89;99720.97;5070318;28;20369;-48
2022/12/26 03:19:02;;;;;;;;;;;;;;;13.34;56.09;99701.59;5069212;28;19920;-45
2022/12/26 03:21:29;;;;;;;;;;;;;;;13.38;53.75;99680.75;5069231;28;20258;-45
2022/12/26 03:23:54;;;;;;;;;;;;;;;13.63;50.15;99664.41;5073894;28;20976;-45
2022/12/26 03:26:38;;;;;;;;;;;;;;;13.60;46.46;99621.38;5059710;28;19924;-45
2022/12/26 03:31:47;;;;;;;;;;;;;;;13.07;47.39;99555.88;5073856;28;19971;-45
2022/12/26 03:34:18;;;;;;;;;;;;;;;13.31;46.75;99580.97;5073706;28;19920;-45
2022/12/26 03:36:59;;;;;;;;;;;;;;;13.01;48.09;99575.03;5075916;28;19955;-44
2022/12/26 04:19:24;;;;;;;;;;;;;;;12.91;47.82;99621.03;5071568;28;20265;-44
2022/12/26 04:44:17;;;;;;;;;;;;;;;12.88;47.74;99639.22;5070953;28;20415;-45
2022/12/26 04:46:44;;;;;;;;;;;;;;;13.38;45.12;99657.47;5071597;28;19920;-45
2022/12/26 04:51:55;;;;;;;;;;;;;;;12.80;47.54;99610.19;5069673;28;19927;-45
2022/12/26 04:54:20;;;;;;;;;;;;;;;13.09;46.01;99631.66;5069087;28;19920;-44
2022/12/26 04:56:45;;;;;;;;;;;;;;;12.33;51.78;99627.97;5071186;28;19959;-45
2022/12/26 04:59:11;;;;;;;;;;;;;;;12.03;55.04;99674.41;5071760;28;19916;-46
2022/12/26 05:10:03;;;;;;;;;;;;;;;11.84;75.96;99892.56;5069924;28;19946;-45
2022/12/26 05:12:28;;;;;;;;;;;;;;;11.76;77.78;99910.78;5068815;28;19920;-45
2022/12/26 05:14:53;;;;;;;;;;;;;;;11.42;79.77;99916.66;5072170;28;19930;-46
2022/12/26 05:31:02;;;;;;;;;;;;;;;11.89;72.42;99870.09;5074041;28;20400;-45
2022/12/26 05:36:11;;;;;;;;;;;;;;;11.82;70.99;99838.41;5073886;28;19926;-45
2022/12/26 05:38:37;;;;;;;;;;;;;;;12.36;67.23;99870.66;5062405;28;19924;-45
2022/12/26 05:41:02;;;;;;;;;;;;;;;11.54;66.84;99791.75;5071414;28;20018;-45
2022/12/26 05:43:27;;;;;;;;;;;;;;;11.84;66.14;99810.81;5071711;28;19963;-44
2022/12/26 05:45:52;;;;;;;;;;;;;;;12.00;63.78;99803.59;5068952;28;19973;-45
2022/12/26 05:48:18;;;;;;;;;;;;;;;11.88;62.57;99785.78;5069927;28;19965;-44
2022/12/26 05:50:43;;;;;;;;;;;;;;;11.73;61.50;99758.63;5069800;28;20003;-43
2022/12/26 05:53:08;;;;;;;;;;;;;;;11.46;59.05;99729.19;5074306;28;19974;-45
2022/12/26 05:55:33;;;;;;;;;;;;;;;12.00;53.96;99739.03;5070739;28;19923;-44
2022/12/26 05:57:59;;;;;;;;;;;;;;;11.68;51.85;99689.06;5070542;28;19920;-46
2022/12/26 06:00:25;;;;;;;;;;;;;;;12.05;48.28;99682.97;5073397;28;20419;-44
2022/12/26 06:02:50;;;;;;;;;;;;;;;12.03;47.54;99645.19;5069869;28;19942;-44
2022/12/26 06:05:15;;;;;;;;;;;;;;;11.67;49.87;99602.22;5073316;28;19982;-44
2022/12/26 06:07:40;;;;;;;;;;;;;;;11.69;49.03;99597.03;5071575;28;19969;-44
2022/12/26 06:10:06;;;;;;;;;;;;;;;11.92;48.94;99583.50;5070917;28;19924;-44
2022/12/26 06:12:32;;;;;;;;;;;;;;;11.75;50.36;99541.84;5071134;28;19931;-45
2022/12/26 06:14:57;;;;;;;;;;;;;;;12.11;49.53;99540.81;5070634;28;19924;-44
2022/12/26 06:17:22;;;;;;;;;;;;;;;12.11;50.70;99522.72;5070710;28;19920;-45
2022/12/26 06:19:48;;;;;;;;;;;;;;;11.86;53.40;99495.91;5071248;28;19931;-44
2022/12/26 06:22:13;;;;;;;;;;;;;;;12.05;53.36;99494.50;5070363;28;19921;-44
2022/12/26 06:24:38;;;;;;;;;;;;;;;11.77;55.09;99478.97;5070846;28;19955;-44
2022/12/26 06:27:03;;;;;;;;;;;;;;;11.81;53.61;99484.88;5071844;28;19967;-44
2022/12/26 06:29:28;;;;;;;;;;;;;;;11.82;52.12;99489.16;5070526;28;19920;-44
2022/12/26 06:31:54;;;;;;;;;;;;;;;12.05;51.61;99499.69;5069030;28;19920;-43
2022/12/26 06:34:19;;;;;;;;;;;;;;;11.37;55.93;99456.03;5068990;28;19970;-44
2022/12/26 06:36:44;;;;;;;;;;;;;;;11.85;52.87;99483.91;5071370;28;19916;-44
2022/12/26 06:39:09;;;;;;;;;;;;;;;11.72;53.59;99468.78;5069816;28;20533;-44
2022/12/26 06:41:35;;;;;;;;;;;;;;;12.35;52.69;99489.28;5070829;28;19974;-44
2022/12/26 06:44:00;;;;;;;;;;;;;;;12.07;56.38;99459.16;5071149;28;19924;-44
2022/12/26 06:46:25;;;;;;;;;;;;;;;12.28;58.89;99438.72;5070107;28;20038;-44
2022/12/26 06:48:51;;;;;;;;;;;;;;;12.50;59.85;99431.16;5070536;28;19970;-43
2022/12/26 06:51:20;;;;;;;;;;;;;;;12.59;60.39;99411.88;5071840;28;19923;-43
2022/12/26 06:53:46;;;;;;;;;;;;;;;12.06;64.40;99374.84;5070568;28;19968;-43
2022/12/26 06:56:12;;;;;;;;;;;;;;;12.24;61.29;99403.56;5070011;28;20459;-43
2022/12/26 06:58:37;;;;;;;;;;;;;;;12.32;60.22;99414.50;5071068;28;19950;-43
2022/12/26 07:01:06;;;;;;;;;;;;;;;12.07;63.45;99397.22;5071143;28;19916;-44
2022/12/26 07:03:31;;;;;;;;;;;;;;;12.34;63.45;99397.22;5074667;28;19997;-44
2022/12/26 07:06:00;;;;;;;;;;;;;;;12.62;63.67;99396.31;5075876;28;20578;-43
2022/12/26 07:08:26;;;;;;;;;;;;;;;12.04;67.26;99358.59;5074802;28;19922;-43
2022/12/26 07:10:51;;;;;;;;;;;;;;;12.80;63.95;99385.31;5075268;28;19921;-43
2022/12/26 07:13:16;;;;;;;;;;;;;;;13.01;65.30;99367.38;5077052;28;19920;-44
2022/12/26 07:15:41;;;;;;;;;;;;;;;12.62;68.78;99321.38;5075336;28;19966;-45
2022/12/26 07:18:07;;;;;;;;;;;;;;;12.70;70.27;99306.41;5075556;28;19924;-44
2022/12/26 07:20:32;;;;;;;;;;;;;;;12.76;71.60;99291.53;5070729;28;21011;-43
2022/12/26 07:22:57;;;;;;;;;;;;;;;12.61;72.87;99281.75;5072989;28;19952;-43
2022/12/26 07:25:22;;;;;;;;;;;;;;;12.58;72.82;99286.19;5072387;28;19921;-43
2022/12/26 07:27:51;;;;;;;;;;;;;;;12.50;73.84;99287.31;5072326;28;19939;-43
2022/12/26 07:30:16;;;;;;;;;;;;;;;12.61;74.60;99286.91;5071807;28;19916;-43
2022/12/26 07:32:41;;;;;;;;;;;;;;;12.54;74.36;99283.72;5072683;28;19919;-44
2022/12/26 07:35:07;;;;;;;;;;;;;;;12.00;76.02;99282.16;5066103;28;20317;-43
2022/12/26 07:37:32;;;;;;;;;;;;;;;12.73;71.45;99327.00;5070137;28;20940;-43
2022/12/26 07:39:57;;;;;;;;;;;;;;;12.54;74.28;99306.97;5071975;28;19993;-43
2022/12/26 07:42:23;;;;;;;;;;;;;;;12.61;75.12;99286.06;5073069;28;20003;-43
2022/12/26 07:44:48;;;;;;;;;;;;;;;13.01;74.15;99302.75;5072609;28;20023;-44
2022/12/26 07:47:13;;;;;;;;;;;;;;;12.74;76.91;99285.56;5073080;28;19971;-44
2022/12/26 07:49:38;;;;;;;;;;;;;;;12.86;76.80;99292.03;5070288;28;19935;-43
2022/12/26 07:52:04;;;;;;;;;;;;;;;13.07;77.53;99299.91;5071183;28;19920;-45
2022/12/26 07:54:31;;;;;;;;;;;;;;;12.79;80.49;99267.31;5070990;28;20611;-43
2022/12/26 07:56:56;;;;;;;;;;;;;;;12.81;79.03;99268.09;5072193;28;19978;-44
2022/12/26 07:59:21;;;;;;;;;;;;;;;12.68;79.48;99272.03;5071026;28;19923;-44
2022/12/26 08:01:46;;;;;;;;;;;;;;;12.69;78.90;99268.56;5070272;28;20994;-43
2022/12/26 08:04:12;;;;;;;;;;;;;;;12.82;79.06;99263.78;5067094;28;19997;-43
2022/12/26 08:06:37;;;;;;;;;;;;;;;12.53;79.42;99261.38;5069783;28;19935;-43
2022/12/26 08:09:03;;;;;;;;;;;;;;;12.41;78.76;99274.72;5071969;28;19921;-44
2022/12/26 08:11:28;;;;;;;;;;;;;;;12.26;79.45;99276.09;5071634;28;19943;-43
2022/12/26 08:13:53;;;;;;;;;;;;;;;12.25;78.41;99295.06;5071129;28;20365;-43
2022/12/26 08:16:19;;;;;;;;;;;;;;;12.87;75.63;99321.34;5071355;28;20465;-44
2022/12/26 08:18:44;;;;;;;;;;;;;;;12.71;77.14;99308.13;5072508;28;19931;-43
2022/12/26 08:21:09;;;;;;;;;;;;;;;12.96;77.27;99296.00;5075234;28;20968;-44
2022/12/26 08:23:35;;;;;;;;;;;;;;;12.51;78.18;99286.41;5071489;28;20559;-43
2022/12/26 08:26:07;;;;;;;;;;;;;;;12.03;81.19;99284.63;5074760;28;20989;-44
2022/12/26 08:28:32;;;;;;;;;;;;;;;12.25;77.12;99320.91;5072854;28;19920;-43
2022/12/26 08:30:58;;;;;;;;;;;;;;;12.91;74.93;99341.84;5074948;28;19921;-43
2022/12/26 08:33:23;;;;;;;;;;;;;;;12.95;76.25;99333.09;5072120;28;19920;-42
2022/12/26 08:35:48;;;;;;;;;;;;;;;13.12;76.74;99311.78;5074523;28;19920;-43
2022/12/26 08:38:13;;;;;;;;;;;;;;;12.76;79.87;99293.28;5071299;28;19930;-43
2022/12/26 08:40:39;;;;;;;;;;;;;;;12.38;80.56;99268.81;5071033;28;19924;-43
2022/12/26 08:43:04;;;;;;;;;;;;;;;12.74;77.87;99297.66;5073399;28;20016;-43
2022/12/26 08:45:30;;;;;;;;;;;;;;;12.41;78.34;99300.56;5073840;28;19982;-43
2022/12/26 08:47:55;;;;;;;;;;;;;;;12.27;76.61;99329.44;5072633;28;20057;-43
2022/12/26 08:50:20;;;;;;;;;;;;;;;12.49;74.28;99354.53;5073458;28;19966;-43
2022/12/26 08:52:45;;;;;;;;;;;;;;;12.58;75.73;99348.19;5070503;28;20582;-43
2022/12/26 08:55:11;;;;;;;;;;;;;;;12.63;74.72;99346.28;5072812;28;20570;-43
2022/12/26 08:57:36;;;;;;;;;;;;;;;12.20;75.70;99329.69;5070803;28;19994;-43
2022/12/26 09:00:03;;;;;;;;;;;;;;;12.57;73.00;99357.69;5071383;28;20981;-43
2022/12/26 09:02:28;;;;;;;;;;;;;;;12.05;77.71;99329.28;5070992;28;19916;-43
2022/12/26 09:04:53;;;;;;;;;;;;;;;11.85;77.51;99334.22;5070746;28;19978;-43
2022/12/26 09:07:18;;;;;;;;;;;;;;;12.44;74.56;99367.59;5071255;28;20356;-43
2022/12/26 09:09:44;;;;;;;;;;;;;;;12.35;75.48;99363.56;5070423;28;20266;-43
2022/12/26 09:12:09;;;;;;;;;;;;;;;12.53;75.48;99369.03;5070745;28;19924;-43
2022/12/26 09:14:34;;;;;;;;;;;;;;;12.32;76.88;99365.44;5069885;28;19912;-44
2022/12/26 09:17:00;;;;;;;;;;;;;;;12.37;77.11;99355.78;5071268;28;20030;-44
2022/12/26 09:19:28;;;;;;;;;;;;;;;12.10;76.82;99349.78;5070601;28;19916;-43
2022/12/26 09:22:49;;;;;;;;;;;;;;;12.28;75.97;99376.75;5071236;28;20573;-44
2022/12/26 09:24:39;;;;;;;;;;;;;;;12.30;76.16;99373.22;5072930;28;19916;-44
2022/12/26 09:27:04;;;;;;;;;;;;;;;11.85;78.15;99353.13;5070769;28;19924;-43
2022/12/26 09:29:29;;;;;;;;;;;;;;;12.02;76.17;99370.72;5069912;28;20553;-43
2022/12/26 09:31:54;;;;;;;;;;;;;;;11.91;76.18;99383.09;5072493;28;19920;-43
2022/12/26 09:34:20;;;;;;;;;;;;;;;12.19;74.29;99392.56;5069259;28;19951;-43
2022/12/26 09:36:45;;;;;;;;;;;;;;;11.71;76.73;99384.53;5071842;28;19958;-44
2022/12/26 09:39:10;;;;;;;;;;;;;;;12.26;74.07;99410.38;5069130;28;19931;-45
2022/12/26 09:41:43;;;;;;;;;;;;;;;12.06;77.57;99382.59;5070352;28;19917;-43
2022/12/26 09:44:40;;;;;;;;;;;;;;;11.92;78.85;99361.56;5072018;28;19916;-44
2022/12/26 09:47:24;;;;;;;;;;;;;;;11.96;77.94;99360.56;5050835;28;19947;-44
2022/12/26 09:49:53;;;;;;;;;;;;;;;11.73;80.11;99346.63;5068369;28;19920;-44
2022/12/26 09:52:19;;;;;;;;;;;;;;;12.55;77.21;99367.25;5069830;28;19920;-44
2022/12/26 09:54:52;;;;;;;;;;;;;;;12.64;78.54;99359.19;5070235;28;20061;-44
2022/12/26 09:57:24;;;;;;;;;;;;;;;12.04;82.73;99308.69;5069132;28;21466;-44
2022/12/26 09:59:56;;;;;;;;;;;;;;;11.71;82.71;99314.84;5066733;28;20357;-43
2022/12/26 10:02:22;;;;;;;;;;;;;;;11.65;81.37;99327.94;5067354;28;19923;-43
2022/12/26 10:04:48;;;;;;;;;;;;;;;11.83;79.73;99359.22;5068488;28;20289;-43
2022/12/26 10:07:16;;;;;;;;;;;;;;;11.57;80.81;99360.88;5071272;28;20297;-44
2022/12/26 10:09:47;;;;;;;;;;;;;;;11.62;81.63;99353.84;5069590;28;20032;-44
2022/12/26 10:12:16;;;;;;;;;;;;;;;11.55;80.81;99369.56;5069126;28;19916;-43
2022/12/26 10:14:41;;;;;;;;;;;;;;;12.05;79.77;99391.25;5070166;28;19916;-43
2022/12/26 10:17:09;;;;;;;;;;;;;;;11.81;82.39;99353.28;5067455;28;19938;-43
2022/12/26 10:19:34;;;;;;;;;;;;;;;11.84;85.51;99340.28;5066695;28;19916;-44
2022/12/26 10:22:18;;;;;;;;;;;;;;;11.66;85.92;99334.81;5068452;28;19920;-43
2022/12/26 10:24:43;;;;;;;;;;;;;;;12.52;82.92;99334.59;5067794;28;19916;-43
2022/12/26 10:27:13;;;;;;;;;;;;;;;11.83;88.60;99294.72;5066585;28;19924;-43
2022/12/26 10:29:40;;;;;;;;;;;;;;;11.95;88.67;99296.94;5068809;28;19916;-44
2022/12/26 10:32:29;;;;;;;;;;;;;;;11.93;89.53;99278.09;5068259;28;19916;-43
2022/12/26 10:34:55;;;;;;;;;;;;;;;11.75;90.40;99270.91;5060494;28;19920;-43
2022/12/26 10:37:32;;;;;;;;;;;;;;;12.33;90.20;99274.13;5068451;28;19912;-43
2022/12/26 10:40:13;;;;;;;;;;;;;;;12.16;92.75;99268.69;5067877;28;19935;-43
2022/12/26 10:42:41;;;;;;;;;;;;;;;12.11;94.21;99254.25;5068138;28;19959;-43
2022/12/26 10:45:16;;;;;;;;;;;;;;;12.42;93.57;99255.72;5069388;28;19928;-43
2022/12/26 10:47:44;;;;;;;;;;;;;;;12.18;96.60;99238.50;5068976;28;20258;-43
2022/12/26 10:50:20;;;;;;;;;;;;;;;11.79;99.78;99210.56;5068600;28;19947;-43
2022/12/26 10:52:45;;;;;;;;;;;;;;;12.25;98.34;99219.34;5061490;28;20027;-43
2022/12/26 10:55:16;;;;;;;;;;;;;;;11.82;100.00;99195.00;5066777;28;19997;-43
2022/12/26 10:57:42;;;;;;;;;;;;;;;11.89;100.00;99196.50;5068729;28;19916;-43
2022/12/26 11:00:27;;;;;;;;;;;;;;;12.27;100.00;99208.06;5069486;28;20470;-43
2022/12/26 11:03:09;;;;;;;;;;;;;;;11.84;100.00;99190.63;5068578;28;20377;-42
2022/12/26 11:05:35;;;;;;;;;;;;;;;11.93;100.00;99190.34;5068967;28;19965;-43
2022/12/26 11:08:05;;;;;;;;;;;;;;;12.41;100.00;99202.41;5069364;28;19925;-43
2022/12/26 11:10:31;;;;;;;;;;;;;;;12.31;100.00;99190.72;5067058;28;19924;-42
2022/12/26 11:13:00;;;;;;;;;;;;;;;11.88;100.00;99156.09;5070699;28;19920;-42
2022/12/26 11:15:33;;;;;;;;;;;;;;;12.50;100.00;99176.25;5050191;28;20479;-42
2022/12/26 11:18:06;;;;;;;;;;;;;;;12.28;100.00;99175.34;5068222;28;19921;-42
2022/12/26 11:20:31;;;;;;;;;;;;;;;12.14;100.00;99153.44;5067410;28;19916;-42
2022/12/26 11:23:11;;;;;;;;;;;;;;;11.84;100.00;99141.59;5070710;28;19924;-42
2022/12/26 11:25:46;;;;;;;;;;;;;;;12.58;100.00;99149.28;5071181;28;19916;-42
2022/12/26 11:28:18;;;;;;;;;;;;;;;12.35;100.00;99138.06;5067278;28;19921;-42
2022/12/26 11:30:43;;;;;;;;;;;;;;;11.83;100.00;99120.09;5069561;28;19916;-42
2022/12/26 11:33:09;;;;;;;;;;;;;;;12.58;100.00;99141.53;5060777;28;19920;-43
2022/12/26 11:35:36;;;;;;;;;;;;;;;12.55;100.00;99125.22;5069959;28;19920;-42
2022/12/26 11:38:02;;;;;;;;;;;;;;;12.74;100.00;99117.59;5067288;28;19923;-42
2022/12/26 11:40:30;;;;;;;;;;;;;;;12.46;100.00;99102.34;5068286;28;19912;-42
2022/12/26 11:42:56;;;;;;;;;;;;;;;12.60;100.00;99113.88;5067417;28;19939;-42
2022/12/26 11:45:22;;;;;;;;;;;;;;;12.34;100.00;99100.22;5066303;28;20397;-42
2022/12/26 11:47:47;;;;;;;;;;;;;;;11.62;100.00;99089.91;5068695;28;19924;-42
2022/12/26 11:50:19;;;;;;;;;;;;;;;12.32;100.00;99110.59;5071655;28;19998;-42
2022/12/26 11:52:45;;;;;;;;;;;;;;;12.41;100.00;99099.09;5070304;28;19923;-42
2022/12/26 11:55:29;;;;;;;;;;;;;;;12.49;100.00;99081.53;5072209;28;20004;-42
2022/12/26 11:57:56;;;;;;;;;;;;;;;12.89;100.00;99074.81;5075303;28;19952;-42
2022/12/26 12:00:21;;;;;;;;;;;;;;;12.59;100.00;99060.53;5071906;28;19921;-42
2022/12/26 12:02:46;;;;;;;;;;;;;;;12.46;100.00;99071.34;5071386;28;19920;-42
2022/12/26 12:05:35;;;;;;;;;;;;;;;12.68;100.00;99086.00;5071799;28;20006;-42
2022/12/26 12:08:19;;;;;;;;;;;;;;;12.73;100.00;99081.50;5050667;28;19923;-42
2022/12/26 12:10:56;;;;;;;;;;;;;;;12.13;100.00;99089.81;5071319;28;20039;-42
2022/12/26 12:13:21;;;;;;;;;;;;;;;12.17;100.00;99112.91;5072963;28;19916;-42
2022/12/26 12:15:54;;;;;;;;;;;;;;;11.76;100.00;99108.31;5075088;28;19942;-42
2022/12/26 12:18:29;;;;;;;;;;;;;;;12.38;100.00;99124.19;5072216;28;19935;-42
2022/12/26 12:21:11;;;;;;;;;;;;;;;12.28;100.00;99124.53;5075814;28;19917;-42
2022/12/26 12:23:50;;;;;;;;;;;;;;;12.51;100.00;99121.06;5072345;28;19916;-42
2022/12/26 12:26:25;;;;;;;;;;;;;;;12.44;100.00;99111.88;5072554;28;20297;-42
2022/12/26 12:29:09;;;;;;;;;;;;;;;12.87;100.00;99111.97;5072598;28;19916;-43
2022/12/26 12:31:41;;;;;;;;;;;;;;;12.59;100.00;99083.78;5071458;28;19974;-42
2022/12/26 12:34:30;;;;;;;;;;;;;;;12.81;100.00;99082.03;5070616;28;20013;-42
2022/12/26 12:36:55;;;;;;;;;;;;;;;12.96;100.00;99086.59;5071665;28;19973;-42
2022/12/26 12:39:36;;;;;;;;;;;;;;;12.75;100.00;99066.78;5067673;28;19912;-42
2022/12/26 12:42:05;;;;;;;;;;;;;;;12.34;100.00;99069.25;5073194;28;19939;-42
2022/12/26 12:44:37;;;;;;;;;;;;;;;12.62;100.00;99073.34;5069570;28;19916;-42
2022/12/26 12:47:15;;;;;;;;;;;;;;;12.52;100.00;99062.50;5072816;28;19924;-42
2022/12/26 12:50:03;;;;;;;;;;;;;;;12.76;100.00;99078.78;5070869;28;19927;-42
2022/12/26 12:52:34;;;;;;;;;;;;;;;12.55;100.00;99070.97;5066814;28;19923;-43
2022/12/26 12:55:17;;;;;;;;;;;;;;;12.54;100.00;99073.63;5071726;28;19967;-42
2022/12/26 12:57:46;;;;;;;;;;;;;;;12.17;100.00;99069.84;5071147;28;19927;-42
2022/12/26 13:00:14;;;;;;;;;;;;;;;12.49;100.00;99071.22;5072060;28;19935;-42
2022/12/26 13:02:48;;;;;;;;;;;;;;;12.09;100.00;99072.75;5073035;28;19951;-42
2022/12/26 13:05:16;;;;;;;;;;;;;;;12.24;100.00;99085.97;5073716;28;19969;-42
2022/12/26 13:07:43;;;;;;;;;;;;;;;11.97;100.00;99078.34;5069513;28;19924;-42
2022/12/26 13:10:14;;;;;;;;;;;;;;;12.30;100.00;99098.66;5071356;28;19920;-42
2022/12/26 13:12:39;;;;;;;;;;;;;;;12.24;100.00;99085.97;5072563;28;19938;-42
2022/12/26 13:15:06;;;;;;;;;;;;;;;12.37;100.00;99084.59;5073013;28;20680;-42
2022/12/26 13:17:48;;;;;;;;;;;;;;;12.60;100.00;99077.72;5070571;28;19920;-42
2022/12/26 13:20:15;;;;;;;;;;;;;;;12.39;100.00;99079.41;5070741;28;21008;-42
2022/12/26 13:25:31;;;;;;;;;;;;;;;12.37;100.00;99076.88;5069280;28;19974;-42
2022/12/26 13:28:08;;;;;;;;;;;;;;;12.03;100.00;99062.63;5070443;28;19993;-42
2022/12/26 13:30:33;;;;;;;;;;;;;;;12.06;100.00;99067.66;5070264;28;19973;-42
2022/12/26 13:32:58;;;;;;;;;;;;;;;11.79;100.00;99055.75;5072843;28;20421;-42
2022/12/26 13:35:42;;;;;;;;;;;;;;;11.90;100.00;99076.88;5065776;28;19920;-42
2022/12/26 13:38:07;;;;;;;;;;;;;;;12.21;100.00;99099.00;5069173;28;19920;-42
2022/12/26 13:40:32;;;;;;;;;;;;;;;12.02;100.00;99089.34;5072266;28;19919;-42
2022/12/26 13:45:49;;;;;;;;;;;;;;;11.93;100.00;99089.69;5072124;28;21094;-42
2022/12/26 13:48:15;;;;;;;;;;;;;;;11.83;100.00;99101.19;5069237;28;20437;-42
2022/12/26 13:50:53;;;;;;;;;;;;;;;10.56;100.00;99135.41;5070388;28;19969;-42
2022/12/26 13:53:24;;;;;;;;;;;;;;;9.57;100.00;99192.94;5070844;28;19927;-45
2022/12/26 13:55:56;;;;;;;;;;;;;;;9.18;84.95;99309.50;5070234;28;19920;-46
2022/12/26 13:58:25;;;;;;;;;;;;;;;9.15;67.75;99432.06;5070155;28;19927;-45
2022/12/26 14:00:50;;;;;;;;;;;;;;;9.00;60.64;99548.78;5065951;28;19925;-44
2022/12/26 14:03:19;;;;;;;;;;;;;;;9.26;58.36;99663.13;5065524;28;19928;-44
2022/12/26 14:05:51;;;;;;;;;;;;;;;9.27;59.72;99753.06;5067691;28;19924;-45
2022/12/26 14:08:35;;;;;;;;;;;;;;;9.02;63.84;99806.53;5065734;28;20340;-44
2022/12/26 14:11:19;;;;;;;;;;;;;;;9.43;64.33;99898.50;5068597;28;20029;-45
2022/12/26 14:13:50;;;;;;;;;;;;;;;9.26;68.31;99938.16;5071028;28;20522;-45
2022/12/26 14:16:21;;;;;;;;;;;;;;;9.47;70.21;99981.63;5071008;28;19920;-44
2022/12/26 14:18:46;;;;;;;;;;;;;;;9.00;74.44;99977.81;5066771;28;19916;-46
2022/12/26 14:21:20;;;;;;;;;;;;;;;9.55;74.90;100046.66;5071943;28;20377;-45
2022/12/26 14:23:52;;;;;;;;;;;;;;;9.38;76.04;100049.41;5071174;28;19962;-45
2022/12/26 14:26:20;;;;;;;;;;;;;;;9.39;76.17;100063.94;5067478;28;19928;-44
2022/12/26 14:29:14;;;;;;;;;;;;;;;9.29;77.50;100066.66;5070428;28;20007;-45
2022/12/26 14:31:58;;;;;;;;;;;;;;;9.20;77.67;100071.00;5031221;28;19928;-44
2022/12/26 14:34:31;;;;;;;;;;;;;;;9.26;77.85;100071.78;5069407;28;20332;-45
2022/12/26 14:36:56;;;;;;;;;;;;;;;9.19;77.31;100077.03;5067694;28;20285;-45
2022/12/26 14:39:24;;;;;;;;;;;;;;;9.03;77.58;100054.88;5061726;28;19920;-45
2022/12/26 14:44:48;;;;;;;;;;;;;;;9.19;77.84;100076.13;5071724;28;19970;-44
2022/12/26 14:47:14;;;;;;;;;;;;;;;9.34;77.11;100085.44;5070869;28;20018;-45
2022/12/26 14:49:40;;;;;;;;;;;;;;;8.97;78.08;100078.06;5069950;28;20008;-45
2022/12/26 14:52:23;;;;;;;;;;;;;;;8.95;78.71;100087.50;5070478;28;19948;-44
2022/12/26 14:54:49;;;;;;;;;;;;;;;9.14;79.01;100104.44;5068578;28;19935;-44
2022/12/26 14:57:33;;;;;;;;;;;;;;;9.12;78.86;100103.66;5071783;28;20590;-44
2022/12/26 15:00:07;;;;;;;;;;;;;;;8.86;79.14;100087.56;5067687;28;19932;-44
2022/12/26 15:02:33;;;;;;;;;;;;;;;8.87;79.28;100095.28;5069083;28;19920;-44